Time;durP1;ratioP1;P1;durP2;ratioP2;P2;SDS_P1;SDS_P2;PMS_P1;PMS_P2;Temp;Humidity;BMP_temperature;BMP_pressure;BME280_temperature;BME280_humidity;BME280_pressure;Samples;Min_cycle;Max_cycle;Signal;HPM_P1;HPM_P2
2022/12/30 00:02:06;;;;;;;54.10;29.90;;;;;;;;;;5118997;28;20059;-89
2022/12/30 00:04:32;;;;;;;56.42;32.05;;;;;;;;;;5119314;28;20089;-89
2022/12/30 00:07:00;;;;;;;61.40;34.83;;;;;;;;;;5099490;28;20470;-90
2022/12/30 00:09:26;;;;;;;66.88;38.53;;;;;;;;;;5099037;28;20020;-89
2022/12/30 00:11:52;;;;;;;57.05;33.55;;;;;;;;;;5099378;28;20054;-89
2022/12/30 00:34:32;;;;;;;42.92;25.10;;;;;;;;;;5115547;28;20486;-88
2022/12/30 00:36:58;;;;;;;34.80;20.40;;;;;;;;;;5119262;28;20031;-90
2022/12/30 00:39:25;;;;;;;34.63;20.15;;;;;;;;;;5118728;28;20041;-90
2022/12/30 00:44:55;;;;;;;35.17;20.63;;;;;;;;;;5118622;28;20080;-89
2022/12/30 00:47:21;;;;;;;28.17;17.02;;;;;;;;;;5116956;28;20069;-87
2022/12/30 00:58:01;;;;;;;28.63;17.30;;;;;;;;;;5110756;28;20058;-90
2022/12/30 01:00:27;;;;;;;26.92;16.35;;;;;;;;;;5100932;28;20019;-90
2022/12/30 01:02:54;;;;;;;25.25;15.43;;;;;;;;;;5117698;28;20047;-90
2022/12/30 01:05:20;;;;;;;22.45;13.23;;;;;;;;;;5118314;28;20046;-90
2022/12/30 01:07:46;;;;;;;21.90;12.68;;;;;;;;;;5104254;28;20440;-90
2022/12/30 01:10:12;;;;;;;21.55;12.35;;;;;;;;;;5098019;28;20035;-89
2022/12/30 01:12:38;;;;;;;26.40;14.65;;;;;;;;;;5114226;28;20032;-90
2022/12/30 01:18:08;;;;;;;25.40;13.77;;;;;;;;;;5098399;28;20046;-90
2022/12/30 01:20:35;;;;;;;22.98;13.73;;;;;;;;;;5098087;28;20054;-90
2022/12/30 01:23:01;;;;;;;28.20;14.95;;;;;;;;;;5106442;28;20271;-89
2022/12/30 01:25:27;;;;;;;22.13;13.90;;;;;;;;;;5118243;28;20363;-90
2022/12/30 01:27:53;;;;;;;26.58;14.60;;;;;;;;;;5118199;28;20390;-89
2022/12/30 01:33:23;;;;;;;25.25;13.43;;;;;;;;;;5097890;28;20412;-93
2022/12/30 01:35:49;;;;;;;27.83;13.77;;;;;;;;;;5096874;28;20058;-90
2022/12/30 01:38:15;;;;;;;24.73;13.65;;;;;;;;;;5112999;28;20035;-90
2022/12/30 01:40:42;;;;;;;24.48;13.00;;;;;;;;;;5117097;28;20425;-90
2022/12/30 01:46:27;;;;;;;31.55;14.50;;;;;;;;;;5097884;28;20066;-91
2022/12/30 01:48:54;;;;;;;26.15;14.05;;;;;;;;;;5097964;28;20063;-90
2022/12/30 01:51:26;;;;;;;24.02;12.73;;;;;;;;;;5098207;28;20095;-89
2022/12/30 01:53:54;;;;;;;24.27;12.63;;;;;;;;;;5096914;28;20345;-90
2022/12/30 01:56:20;;;;;;;25.00;13.10;;;;;;;;;;5108266;28;20039;-89
2022/12/30 02:01:49;;;;;;;21.63;11.70;;;;;;;;;;5112803;28;20039;-89
2022/12/30 02:04:17;;;;;;;23.27;13.27;;;;;;;;;;5115832;28;20024;-90
2022/12/30 02:06:55;;;;;;;28.38;14.27;;;;;;;;;;5114921;28;20028;-90
2022/12/30 02:09:21;;;;;;;23.95;12.77;;;;;;;;;;5111458;28;20047;-90
2022/12/30 02:11:48;;;;;;;20.98;12.25;;;;;;;;;;5101615;28;20401;-88
2022/12/30 02:17:53;;;;;;;21.55;11.32;;;;;;;;;;5101469;28;20082;-90
2022/12/30 02:20:31;;;;;;;21.48;11.70;;;;;;;;;;5022890;28;20033;-89
2022/12/30 02:23:15;;;;;;;20.67;12.18;;;;;;;;;;5023074;28;20032;-90
2022/12/30 02:25:59;;;;;;;19.35;11.43;;;;;;;;;;5039661;28;20021;-90
2022/12/30 02:31:34;;;;;;;26.92;14.85;;;;;;;;;;5039562;28;20148;-89
2022/12/30 02:34:12;;;;;;;28.00;15.68;;;;;;;;;;5038509;28;20037;-90
2022/12/30 02:36:57;;;;;;;23.33;13.15;;;;;;;;;;5039218;28;20018;-90
2022/12/30 02:39:26;;;;;;;19.83;12.60;;;;;;;;;;5022391;28;20436;-90
2022/12/30 02:47:46;;;;;;;18.25;11.35;;;;;;;;;;5021518;28;20032;-90
2022/12/30 02:53:04;;;;;;;23.90;12.30;;;;;;;;;;5019654;28;20060;-90
2022/12/30 02:55:30;;;;;;;18.95;12.10;;;;;;;;;;5099885;28;20081;-89
2022/12/30 02:57:56;;;;;;;22.95;12.20;;;;;;;;;;5109310;28;20023;-89
2022/12/30 03:06:47;;;;;;;19.90;11.13;;;;;;;;;;5058696;28;20056;-90
2022/12/30 03:09:16;;;;;;;23.48;12.25;;;;;;;;;;5049272;28;20093;-90
2022/12/30 03:11:52;;;;;;;20.63;11.60;;;;;;;;;;5061693;28;20044;-90
2022/12/30 03:14:31;;;;;;;17.98;10.95;;;;;;;;;;5078543;28;20037;-89
2022/12/30 03:17:04;;;;;;;17.90;10.77;;;;;;;;;;5078286;28;20028;-90
2022/12/30 03:19:33;;;;;;;16.98;10.52;;;;;;;;;;5077995;28;20116;-91
2022/12/30 03:22:00;;;;;;;25.70;12.38;;;;;;;;;;5057406;28;20044;-91
2022/12/30 03:27:16;;;;;;;19.77;9.68;;;;;;;;;;5078372;28;20425;-90
2022/12/30 03:33:05;;;;;;;16.45;9.68;;;;;;;;;;5077644;28;20064;-91
2022/12/30 03:35:31;;;;;;;14.77;9.13;;;;;;;;;;5037892;28;20037;-92
2022/12/30 03:37:57;;;;;;;16.83;9.18;;;;;;;;;;5037769;28;20030;-90
2022/12/30 03:40:26;;;;;;;20.13;9.40;;;;;;;;;;5046791;28;20045;-89
2022/12/30 03:42:53;;;;;;;17.85;9.60;;;;;;;;;;5058642;28;20021;-90
2022/12/30 03:45:20;;;;;;;18.00;9.73;;;;;;;;;;5059365;28;20021;-90
2022/12/30 03:47:46;;;;;;;20.10;9.20;;;;;;;;;;5059716;28;20311;-90
2022/12/30 03:50:12;;;;;;;14.85;8.82;;;;;;;;;;5059177;28;20033;-91
2022/12/30 03:52:38;;;;;;;16.00;9.48;;;;;;;;;;5059549;28;20052;-90
2022/12/30 03:55:05;;;;;;;16.52;9.25;;;;;;;;;;5058441;28;20037;-90
2022/12/30 03:57:31;;;;;;;17.23;10.00;;;;;;;;;;5059473;28;20041;-91
2022/12/30 03:59:57;;;;;;;16.58;9.30;;;;;;;;;;5074595;28;20031;-91
2022/12/30 04:02:23;;;;;;;14.38;8.93;;;;;;;;;;5079207;28;20020;-91
2022/12/30 04:04:49;;;;;;;14.35;8.70;;;;;;;;;;5068148;28;20414;-91
2022/12/30 04:07:15;;;;;;;17.38;8.75;;;;;;;;;;5058941;28;20450;-91
2022/12/30 04:09:41;;;;;;;14.65;9.60;;;;;;;;;;5070382;28;20025;-92
2022/12/30 04:12:07;;;;;;;14.65;9.60;;;;;;;;;;5078041;28;20025;-91
2022/12/30 04:14:33;;;;;;;16.83;10.05;;;;;;;;;;5078852;28;20021;-92
2022/12/30 04:16:59;;;;;;;15.10;10.40;;;;;;;;;;5078893;28;20315;-91
2022/12/30 04:19:25;;;;;;;19.17;11.52;;;;;;;;;;5077747;28;20021;-91
2022/12/30 04:21:51;;;;;;;16.33;11.00;;;;;;;;;;5076502;28;20427;-88
2022/12/30 04:24:17;;;;;;;19.73;11.25;;;;;;;;;;5057859;28;20482;-91
2022/12/30 04:26:43;;;;;;;16.40;11.18;;;;;;;;;;5058914;28;20311;-91
2022/12/30 04:29:10;;;;;;;17.52;12.35;;;;;;;;;;5059847;28;20071;-91
2022/12/30 04:31:36;;;;;;;19.83;11.55;;;;;;;;;;5057487;28;20111;-90
2022/12/30 04:34:02;;;;;;;19.15;12.45;;;;;;;;;;5074011;28;20040;-91
2022/12/30 04:36:28;;;;;;;19.55;12.05;;;;;;;;;;5099873;28;20043;-87
2022/12/30 04:38:54;;;;;;;24.15;13.10;;;;;;;;;;5121804;28;20294;-91
2022/12/30 04:41:20;;;;;;;20.30;11.75;;;;;;;;;;5121091;28;20081;-91
2022/12/30 04:43:47;;;;;;;18.63;12.13;;;;;;;;;;5119222;28;20102;-91
2022/12/30 04:52:20;;;;;;;42.97;23.25;;;;;;;;;;5119083;28;20051;-90
2022/12/30 04:54:46;;;;;;;52.85;27.90;;;;;;;;;;5119246;28;20023;-90
2022/12/30 04:57:12;;;;;;;45.38;24.90;;;;;;;;;;5118033;28;20023;-91
2022/12/30 05:02:42;;;;;;;21.27;11.77;;;;;;;;;;5119010;28;20053;-91
2022/12/30 05:05:08;;;;;;;20.25;12.48;;;;;;;;;;5118541;28;20015;-90
2022/12/30 05:07:34;;;;;;;20.50;12.02;;;;;;;;;;5118560;28;20023;-90
2022/12/30 05:10:00;;;;;;;20.55;11.93;;;;;;;;;;5110931;28;20408;-90
2022/12/30 05:12:27;;;;;;;20.50;11.90;;;;;;;;;;5097348;28;20131;-90
2022/12/30 05:21:00;;;;;;;27.17;14.98;;;;;;;;;;5097783;28;20043;-90
2022/12/30 05:26:14;;;;;;;21.00;12.57;;;;;;;;;;5098432;28;20027;-90
2022/12/30 05:28:41;;;;;;;16.15;10.50;;;;;;;;;;5098110;28;20020;-90
2022/12/30 05:31:26;;;;;;;16.95;10.55;;;;;;;;;;5098061;28;20024;-90
2022/12/30 05:33:52;;;;;;;17.05;10.63;;;;;;;;;;5096802;28;20028;-90
2022/12/30 05:36:18;;;;;;;15.02;10.50;;;;;;;;;;5097762;28;20028;-91
2022/12/30 05:38:44;;;;;;;16.05;10.13;;;;;;;;;;5097848;28;20421;-90
2022/12/30 05:41:11;;;;;;;17.83;10.05;;;;;;;;;;5097680;28;20043;-91
2022/12/30 05:43:37;;;;;;;16.67;11.52;;;;;;;;;;5097165;28;20044;-92
2022/12/30 05:46:03;;;;;;;18.83;11.95;;;;;;;;;;5096868;28;20082;-91
2022/12/30 05:48:29;;;;;;;20.95;11.95;;;;;;;;;;5098041;28;20020;-91
2022/12/30 05:50:55;;;;;;;17.70;11.65;;;;;;;;;;5098205;28;20085;-92
2022/12/30 05:53:21;;;;;;;16.95;10.50;;;;;;;;;;5097845;28;20044;-92
2022/12/30 05:55:47;;;;;;;16.67;10.63;;;;;;;;;;5097788;28;20035;-92
2022/12/30 05:58:13;;;;;;;15.52;10.50;;;;;;;;;;5097533;28;20032;-92
2022/12/30 06:00:40;;;;;;;21.45;11.13;;;;;;;;;;5109594;28;20452;-92
2022/12/30 06:03:06;;;;;;;18.75;11.55;;;;;;;;;;5117882;28;20038;-93
2022/12/30 06:05:32;;;;;;;18.83;11.50;;;;;;;;;;5116964;28;20020;-93
2022/12/30 06:07:58;;;;;;;18.75;11.13;;;;;;;;;;5116996;28;20011;-94
2022/12/30 06:10:24;;;;;;;18.30;11.52;;;;;;;;;;5117946;28;20032;-92
2022/12/30 06:12:50;;;;;;;17.92;11.13;;;;;;;;;;5118140;28;20109;-93
2022/12/30 06:18:20;;;;;;;19.15;11.63;;;;;;;;;;5118194;28;20034;-93
2022/12/30 06:20:46;;;;;;;20.88;12.93;;;;;;;;;;5116442;28;20028;-94
2022/12/30 06:23:12;;;;;;;19.75;12.07;;;;;;;;;;5112002;28;20024;-92
2022/12/30 06:25:38;;;;;;;20.55;12.63;;;;;;;;;;5117000;28;20019;-93
2022/12/30 06:28:04;;;;;;;20.27;13.02;;;;;;;;;;5118183;28;20024;-92
2022/12/30 06:30:49;;;;;;;21.30;12.27;;;;;;;;;;5123376;28;20051;-93
2022/12/30 06:33:16;;;;;;;23.60;13.05;;;;;;;;;;5115929;28;20027;-94
2022/12/30 06:35:42;;;;;;;19.67;13.45;;;;;;;;;;5114541;28;20028;-94
2022/12/30 06:38:08;;;;;;;20.90;12.73;;;;;;;;;;5096487;28;20028;-93
2022/12/30 06:40:35;;;;;;;24.73;14.18;;;;;;;;;;5098601;28;20048;-90
2022/12/30 06:43:01;;;;;;;20.15;13.20;;;;;;;;;;5097421;28;20020;-92
2022/12/30 06:45:27;;;;;;;27.00;13.43;;;;;;;;;;5097681;28;20363;-92
2022/12/30 06:47:53;;;;;;;21.48;13.85;;;;;;;;;;5096297;28;20318;-91
2022/12/30 06:50:19;;;;;;;24.50;16.02;;;;;;;;;;5097059;28;20044;-91
2022/12/30 06:52:45;;;;;;;29.17;17.58;;;;;;;;;;5096262;28;20111;-91
2022/12/30 06:55:11;;;;;;;31.25;18.90;;;;;;;;;;5100915;28;20337;-90
2022/12/30 06:57:37;;;;;;;37.55;20.17;;;;;;;;;;5121509;28;20106;-90
2022/12/30 07:00:05;;;;;;;36.65;19.40;;;;;;;;;;5121259;28;20031;-91
2022/12/30 07:02:32;;;;;;;29.80;17.70;;;;;;;;;;5121426;28;20034;-90
2022/12/30 07:04:58;;;;;;;31.33;18.20;;;;;;;;;;5120146;28;20106;-90
2022/12/30 07:07:24;;;;;;;31.75;17.67;;;;;;;;;;5119572;28;20065;-91
2022/12/30 07:09:50;;;;;;;30.45;16.65;;;;;;;;;;5120728;28;20409;-91
2022/12/30 07:12:17;;;;;;;30.80;16.35;;;;;;;;;;5099999;28;20040;-91
2022/12/30 07:14:44;;;;;;;28.20;17.38;;;;;;;;;;5100267;28;20112;-92
2022/12/30 07:17:10;;;;;;;31.40;16.95;;;;;;;;;;5113291;28;20299;-90
2022/12/30 07:19:36;;;;;;;27.80;16.55;;;;;;;;;;5120908;28;20035;-92
2022/12/30 07:22:02;;;;;;;31.88;17.95;;;;;;;;;;5121095;28;20019;-91
2022/12/30 07:24:28;;;;;;;36.58;18.13;;;;;;;;;;5120984;28;20409;-91
2022/12/30 07:26:54;;;;;;;33.10;19.40;;;;;;;;;;5102469;28;20028;-92
2022/12/30 07:29:20;;;;;;;33.75;20.30;;;;;;;;;;5099359;28;20024;-92
2022/12/30 07:32:02;;;;;;;36.90;20.73;;;;;;;;;;5099955;28;20020;-92
2022/12/30 07:34:28;;;;;;;39.03;22.33;;;;;;;;;;5100067;28;20054;-92
2022/12/30 07:36:54;;;;;;;44.13;23.85;;;;;;;;;;5100215;28;20047;-90
2022/12/30 07:39:20;;;;;;;45.60;23.85;;;;;;;;;;5099913;28;20117;-92
2022/12/30 07:41:46;;;;;;;35.63;22.60;;;;;;;;;;5098951;28;20032;-91
2022/12/30 07:44:16;;;;;;;41.22;24.40;;;;;;;;;;5099660;28;20326;-91
2022/12/30 07:46:42;;;;;;;45.83;25.30;;;;;;;;;;5100011;28;20043;-91
2022/12/30 07:49:08;;;;;;;40.97;24.42;;;;;;;;;;5099646;28;20020;-90
2022/12/30 07:51:34;;;;;;;39.83;23.00;;;;;;;;;;5098775;28;20051;-91
2022/12/30 07:54:00;;;;;;;35.10;21.33;;;;;;;;;;5098753;28;20106;-88
2022/12/30 07:56:26;;;;;;;34.25;21.30;;;;;;;;;;5100038;28;20024;-92
2022/12/30 07:58:55;;;;;;;32.22;19.55;;;;;;;;;;5098850;28;20035;-91
2022/12/30 08:01:21;;;;;;;31.30;21.08;;;;;;;;;;5099791;28;20028;-90
2022/12/30 08:03:48;;;;;;;34.28;21.40;;;;;;;;;;5121427;27;20026;-89
2022/12/30 08:06:15;;;;;;;46.55;26.35;;;;;;;;;;5118964;27;20027;-88
2022/12/30 08:08:42;;;;;;;52.65;31.05;;;;;;;;;;5112016;28;20118;-90
2022/12/30 08:11:09;;;;;;;58.40;33.65;;;;;;;;;;5116640;28;20050;-90
2022/12/30 08:13:37;;;;;;;65.53;38.22;;;;;;;;;;5118692;28;20028;-89
2022/12/30 08:16:07;;;;;;;58.22;33.58;;;;;;;;;;5119512;28;20015;-88
2022/12/30 08:18:33;;;;;;;57.78;32.70;;;;;;;;;;5118531;28;20031;-88
2022/12/30 08:21:00;;;;;;;66.97;34.80;;;;;;;;;;5118741;28;20069;-88
2022/12/30 08:23:27;;;;;;;56.10;34.05;;;;;;;;;;5119934;28;20024;-89
2022/12/30 08:25:53;;;;;;;61.13;34.75;;;;;;;;;;5118294;28;20059;-89
2022/12/30 08:28:19;;;;;;;81.28;42.15;;;;;;;;;;5117778;27;20336;-87
2022/12/30 08:30:45;;;;;;;89.38;46.35;;;;;;;;;;5116288;27;20414;-89
2022/12/30 08:33:11;;;;;;;83.10;42.97;;;;;;;;;;5099296;28;20298;-89
2022/12/30 08:35:37;;;;;;;73.90;40.00;;;;;;;;;;5098077;28;20028;-89
2022/12/30 08:38:03;;;;;;;60.58;35.22;;;;;;;;;;5115291;28;20015;-87
2022/12/30 08:40:31;;;;;;;54.20;32.78;;;;;;;;;;5118611;28;20405;-88
2022/12/30 08:42:57;;;;;;;76.38;43.95;;;;;;;;;;5117708;28;20028;-90
2022/12/30 08:48:27;;;;;;;68.72;39.72;;;;;;;;;;5118933;28;20034;-88
2022/12/30 08:50:56;;;;;;;68.60;43.72;;;;;;;;;;5118304;28;20404;-88
2022/12/30 08:53:22;;;;;;;66.55;42.10;;;;;;;;;;5118195;28;20101;-89
2022/12/30 08:55:58;;;;;;;56.80;35.58;;;;;;;;;;5118902;28;20019;-89
2022/12/30 08:58:24;;;;;;;57.25;36.05;;;;;;;;;;5117995;28;20026;-89
2022/12/30 09:00:50;;;;;;;68.68;41.92;;;;;;;;;;5118269;28;20023;-88
2022/12/30 09:03:16;;;;;;;69.70;42.80;;;;;;;;;;5118782;28;20119;-88
2022/12/30 09:05:42;;;;;;;80.20;46.40;;;;;;;;;;5117040;28;20085;-88
2022/12/30 09:08:09;;;;;;;90.07;52.10;;;;;;;;;;5118298;27;20019;-88
2022/12/30 09:10:35;;;;;;;117.68;67.45;;;;;;;;;;5118585;28;20035;-88
2022/12/30 09:13:01;;;;;;;135.13;77.32;;;;;;;;;;5114076;28;20031;-89
2022/12/30 09:15:27;;;;;;;163.32;88.65;;;;;;;;;;5100084;28;20039;-89
2022/12/30 09:17:53;;;;;;;144.27;77.50;;;;;;;;;;5101439;28;20029;-88
2022/12/30 09:20:19;;;;;;;127.50;70.57;;;;;;;;;;5096839;28;20046;-88
2022/12/30 09:22:45;;;;;;;121.35;65.88;;;;;;;;;;5098365;28;20077;-88
2022/12/30 09:25:11;;;;;;;119.30;64.38;;;;;;;;;;5110419;28;20324;-89
2022/12/30 09:27:38;;;;;;;115.47;60.17;;;;;;;;;;5100828;28;20070;-91
2022/12/30 09:30:04;;;;;;;113.13;60.92;;;;;;;;;;5114121;28;20398;-90
2022/12/30 09:32:30;;;;;;;116.72;64.43;;;;;;;;;;5118566;28;20019;-90
2022/12/30 09:34:57;;;;;;;144.85;86.85;;;;;;;;;;5117190;28;20044;-91
2022/12/30 09:37:24;;;;;;;142.07;89.22;;;;;;;;;;5116975;28;20482;-90
2022/12/30 09:39:50;;;;;;;134.35;83.30;;;;;;;;;;5124180;27;20030;-90
2022/12/30 09:45:08;;;;;;;139.55;77.38;;;;;;;;;;5099601;28;20393;-89
2022/12/30 09:47:34;;;;;;;;;;;;;;;;;;5109228;28;20028;-89
2022/12/30 09:50:12;;;;;;;102.25;58.53;;;;;;;;;;5115653;28;19914;-89
2022/12/30 09:52:51;;;;;;;86.72;51.50;;;;;;;;;;5115405;28;20040;-92
2022/12/30 09:55:18;;;;;;;88.45;54.03;;;;;;;;;;5116802;28;20032;-88
2022/12/30 09:57:48;;;;;;;97.72;53.58;;;;;;;;;;5117729;28;20394;-88
2022/12/30 10:00:19;;;;;;;91.82;53.80;;;;;;;;;;5116469;28;20074;-88
2022/12/30 10:02:45;;;;;;;107.65;60.38;;;;;;;;;;5116258;28;20120;-90
2022/12/30 10:05:12;;;;;;;117.32;60.25;;;;;;;;;;5096548;28;20032;-90
2022/12/30 10:07:41;;;;;;;103.68;55.15;;;;;;;;;;5107820;28;20016;-91
2022/12/30 10:10:14;;;;;;;127.00;61.50;;;;;;;;;;5119032;28;20032;-89
2022/12/30 10:12:39;;;;;;;;;;;;;;;;;;5120031;28;20036;-88
2022/12/30 10:15:11;;;;;;;82.63;50.30;;;;;;;;;;5116914;28;19915;-89
2022/12/30 10:17:56;;;;;;;78.68;47.20;;;;;;;;;;5117955;28;20051;-89
2022/12/30 10:20:41;;;;;;;82.47;48.47;;;;;;;;;;5117346;28;20028;-90
2022/12/30 10:23:26;;;;;;;77.25;46.88;;;;;;;;;;5105297;28;20020;-89
2022/12/30 10:25:52;;;;;;;80.25;48.50;;;;;;;;;;5098014;28;20032;-89
2022/12/30 10:28:25;;;;;;;95.32;49.42;;;;;;;;;;5097212;28;20111;-87
2022/12/30 10:30:50;;;;;;;;;;;;;;;;;;5099781;28;20035;-88
2022/12/30 10:33:21;;;;;;;87.43;48.75;;;;;;;;;;5100132;28;19904;-88
2022/12/30 10:36:07;;;;;;;72.00;41.45;;;;;;;;;;5101314;28;20119;-89
2022/12/30 10:38:33;;;;;;;60.40;37.33;;;;;;;;;;5022674;28;20128;-88
2022/12/30 10:41:02;;;;;;;64.80;41.00;;;;;;;;;;5022472;28;20045;-88
2022/12/30 10:43:46;;;;;;;73.57;45.50;;;;;;;;;;5039170;28;20025;-88
2022/12/30 10:46:28;;;;;;;92.88;54.67;;;;;;;;;;5022787;28;20025;-88
2022/12/30 10:51:47;;;;;;;145.30;83.45;;;;;;;;;;5018609;28;20030;-87
2022/12/30 10:54:13;;;;;;;144.73;83.47;;;;;;;;;;5018837;28;20041;-87
2022/12/30 10:56:39;;;;;;;208.20;109.78;;;;;;;;;;5019200;28;20068;-87
2022/12/30 10:59:14;;;;;;;231.25;124.30;;;;;;;;;;5019166;28;20332;-84
2022/12/30 11:01:41;;;;;;;226.20;122.78;;;;;;;;;;5025329;28;20033;-84
2022/12/30 11:04:07;;;;;;;244.32;131.90;;;;;;;;;;5036793;28;20026;-84
2022/12/30 11:06:38;;;;;;;253.07;126.40;;;;;;;;;;5038615;28;20112;-84
2022/12/30 11:09:13;;;;;;;232.43;115.78;;;;;;;;;;5038520;28;20033;-84
2022/12/30 11:14:43;;;;;;;158.90;80.63;;;;;;;;;;5039266;28;20045;-85
2022/12/30 11:17:33;;;;;;;144.57;73.75;;;;;;;;;;5058283;28;20056;-85
2022/12/30 11:20:07;;;;;;;106.93;56.40;;;;;;;;;;5058106;28;20021;-84
2022/12/30 11:22:34;;;;;;;73.63;41.20;;;;;;;;;;5058301;28;20033;-85
2022/12/30 11:25:08;;;;;;;82.60;45.00;;;;;;;;;;5057974;28;20028;-85
2022/12/30 11:27:34;;;;;;;121.35;64.53;;;;;;;;;;5049810;28;20079;-85
2022/12/30 11:30:00;;;;;;;133.95;68.82;;;;;;;;;;5109029;28;20055;-84
2022/12/30 11:32:26;;;;;;;140.32;74.10;;;;;;;;;;5118843;28;20114;-83
2022/12/30 11:34:52;;;;;;;130.35;74.18;;;;;;;;;;5120317;28;20096;-84
2022/12/30 11:37:30;;;;;;;109.20;62.08;;;;;;;;;;5119612;28;20035;-84
2022/12/30 11:39:57;;;;;;;97.70;54.55;;;;;;;;;;5119806;28;20048;-83
2022/12/30 11:42:31;;;;;;;87.80;50.05;;;;;;;;;;5118368;28;20020;-84
2022/12/30 11:45:16;;;;;;;89.18;50.75;;;;;;;;;;5108421;28;20090;-84
2022/12/30 11:47:44;;;;;;;76.13;46.40;;;;;;;;;;5119622;28;20023;-84
2022/12/30 11:50:16;;;;;;;67.43;43.13;;;;;;;;;;5118571;28;20023;-83
2022/12/30 11:52:47;;;;;;;76.97;43.83;;;;;;;;;;5119908;28;20028;-83
2022/12/30 11:55:22;;;;;;;83.82;47.58;;;;;;;;;;5118968;28;20093;-84
2022/12/30 11:57:48;;;;;;;82.78;49.67;;;;;;;;;;5118483;28;20040;-84
2022/12/30 12:00:17;;;;;;;123.22;66.10;;;;;;;;;;5120128;28;20031;-84
2022/12/30 12:02:50;;;;;;;134.93;63.55;;;;;;;;;;5119563;28;20037;-85
2022/12/30 12:05:22;;;;;;;62.22;29.85;;;;;;;;;;5116868;27;20038;-84
2022/12/30 12:07:50;;;;;;;54.85;22.25;;;;;;;;;;5116649;28;20405;-83
2022/12/30 12:10:19;;;;;;;39.28;16.88;;;;;;;;;;5104284;28;20035;-84
2022/12/30 12:13:03;;;;;;;83.82;34.38;;;;;;;;;;5115829;27;20062;-84
2022/12/30 12:15:50;;;;;;;80.65;35.47;;;;;;;;;;5113719;27;20045;-84
2022/12/30 12:18:19;;;;;;;79.05;36.22;;;;;;;;;;5103177;28;20329;-85
2022/12/30 12:20:48;;;;;;;58.60;29.77;;;;;;;;;;5098136;28;20035;-84
2022/12/30 12:23:24;;;;;;;78.75;38.65;;;;;;;;;;5099463;28;20103;-85
2022/12/30 12:26:09;;;;;;;98.72;46.47;;;;;;;;;;5101363;28;20115;-85
2022/12/30 12:28:38;;;;;;;81.28;40.90;;;;;;;;;;5116449;28;20159;-86
2022/12/30 12:31:24;;;;;;;85.65;42.75;;;;;;;;;;5110352;28;20032;-85
2022/12/30 12:33:58;;;;;;;67.32;35.22;;;;;;;;;;5040851;28;20045;-84
2022/12/30 12:36:30;;;;;;;51.67;29.05;;;;;;;;;;5021525;28;20462;-84
2022/12/30 12:39:07;;;;;;;45.72;27.50;;;;;;;;;;5036061;28;20038;-87
2022/12/30 12:41:39;;;;;;;38.53;25.52;;;;;;;;;;5034273;28;20440;-85
2022/12/30 12:44:14;;;;;;;42.33;26.65;;;;;;;;;;5036524;28;20071;-84
2022/12/30 12:50:02;;;;;;;69.32;37.05;;;;;;;;;;5027016;28;20036;-86
2022/12/30 12:52:45;;;;;;;59.58;34.47;;;;;;;;;;5019033;28;20072;-86
2022/12/30 12:55:26;;;;;;;55.38;31.40;;;;;;;;;;5016400;28;20032;-84
2022/12/30 12:58:21;;;;;;;57.80;32.58;;;;;;;;;;5000020;28;20034;-84
2022/12/30 13:00:54;;;;;;;49.03;29.23;;;;;;;;;;4970882;28;20043;-84
2022/12/30 13:03:26;;;;;;;49.65;27.92;;;;;;;;;;4961520;28;20030;-85
2022/12/30 13:06:05;;;;;;;49.03;29.10;;;;;;;;;;4961424;28;20031;-84
2022/12/30 13:08:32;;;;;;;53.03;30.55;;;;;;;;;;4961368;28;20066;-84
2022/12/30 13:11:04;;;;;;;62.55;36.50;;;;;;;;;;4991630;28;20042;-83
2022/12/30 13:13:30;;;;;;;;;;;;;;;;;;5022494;28;20367;-83
2022/12/30 13:16:17;;;;;;;50.13;28.48;;;;;;;;;;5036280;28;19909;-84
2022/12/30 13:18:45;;;;;;;41.53;24.02;;;;;;;;;;5036131;28;20029;-84
2022/12/30 13:21:18;;;;;;;52.90;27.90;;;;;;;;;;5035933;28;20041;-84
2022/12/30 13:23:48;;;;;;;69.15;33.30;;;;;;;;;;5036295;28;20332;-84
2022/12/30 13:26:14;;;;;;;45.78;26.10;;;;;;;;;;5039045;28;20029;-84
2022/12/30 13:28:42;;;;;;;43.10;23.92;;;;;;;;;;5036154;28;20026;-83
2022/12/30 13:31:14;;;;;;;32.33;19.67;;;;;;;;;;5053265;28;20037;-84
2022/12/30 13:33:48;;;;;;;27.65;18.08;;;;;;;;;;5043879;28;20062;-84
2022/12/30 13:36:17;;;;;;;28.83;18.05;;;;;;;;;;5043577;28;20124;-86
2022/12/30 13:38:56;;;;;;;30.08;18.45;;;;;;;;;;5097972;28;20445;-85
2022/12/30 13:41:22;;;;;;;29.88;17.92;;;;;;;;;;5097631;28;20031;-85
2022/12/30 13:43:55;;;;;;;25.55;17.25;;;;;;;;;;5101546;28;20015;-84
2022/12/30 13:46:46;;;;;;;26.08;17.38;;;;;;;;;;5096899;28;20318;-85
2022/12/30 13:49:17;;;;;;;41.75;25.10;;;;;;;;;;5097797;28;20024;-84
2022/12/30 13:51:52;;;;;;;47.72;27.63;;;;;;;;;;5096480;28;20043;-83
2022/12/30 13:54:19;;;;;;;34.17;21.77;;;;;;;;;;5098781;28;20032;-84
2022/12/30 13:56:46;;;;;;;27.52;18.02;;;;;;;;;;5116665;28;20108;-84
2022/12/30 13:59:30;;;;;;;34.50;20.88;;;;;;;;;;5118314;28;20069;-85
2022/12/30 14:02:15;;;;;;;37.90;22.75;;;;;;;;;;5117410;28;20019;-85
2022/12/30 14:04:44;;;;;;;40.30;25.73;;;;;;;;;;5119368;28;20058;-83
2022/12/30 14:07:30;;;;;;;49.95;28.45;;;;;;;;;;5121189;28;20122;-84
2022/12/30 14:10:14;;;;;;;48.50;29.92;;;;;;;;;;5121450;28;20031;-84
2022/12/30 14:12:42;;;;;;;50.60;28.67;;;;;;;;;;5122013;28;20028;-84
2022/12/30 14:15:27;;;;;;;44.92;27.10;;;;;;;;;;5120794;28;20030;-84
2022/12/30 14:17:54;;;;;;;37.47;24.38;;;;;;;;;;5106488;28;20028;-85
2022/12/30 14:20:31;;;;;;;49.75;33.03;;;;;;;;;;5115097;28;20031;-86
2022/12/30 14:22:59;;;;;;;32.80;20.98;;;;;;;;;;5116552;28;20084;-84
2022/12/30 14:25:32;;;;;;;29.67;20.10;;;;;;;;;;5114181;28;20020;-84
2022/12/30 14:28:11;;;;;;;35.45;20.80;;;;;;;;;;5127156;27;20032;-84
2022/12/30 14:30:43;;;;;;;33.47;20.48;;;;;;;;;;5117212;28;20032;-85
2022/12/30 14:33:15;;;;;;;33.67;20.23;;;;;;;;;;5123196;27;20023;-84
2022/12/30 14:35:58;;;;;;;36.65;20.63;;;;;;;;;;5119852;28;20469;-84
2022/12/30 14:38:24;;;;;;;30.92;20.13;;;;;;;;;;5121537;28;20059;-85
2022/12/30 14:40:57;;;;;;;27.13;19.05;;;;;;;;;;5120885;28;20118;-85
2022/12/30 14:43:22;;;;;;;;;;;;;;;;;;5117173;27;20028;-85
2022/12/30 14:45:49;;;;;;;39.35;21.80;;;;;;;;;;5100897;28;19914;-85
2022/12/30 14:48:35;;;;;;;32.33;22.08;;;;;;;;;;5107422;28;20023;-85
2022/12/30 14:51:01;;;;;;;36.92;23.63;;;;;;;;;;5108492;28;20036;-81
2022/12/30 14:53:27;;;;;;;53.40;30.98;;;;;;;;;;5112943;28;20392;-85
2022/12/30 14:55:53;;;;;;;41.25;26.15;;;;;;;;;;5121400;28;20023;-85
2022/12/30 14:58:20;;;;;;;40.60;26.25;;;;;;;;;;5120841;28;20030;-85
2022/12/30 15:00:51;;;;;;;54.00;31.80;;;;;;;;;;5120104;28;20382;-85
2022/12/30 15:03:19;;;;;;;58.25;37.28;;;;;;;;;;5120123;28;20142;-85
2022/12/30 15:05:51;;;;;;;61.65;38.83;;;;;;;;;;5121030;28;20418;-83
2022/12/30 15:08:19;;;;;;;68.75;41.15;;;;;;;;;;5121018;27;20015;-85
2022/12/30 15:10:45;;;;;;;68.53;42.65;;;;;;;;;;5120113;28;20036;-85
2022/12/30 15:13:18;;;;;;;71.38;42.88;;;;;;;;;;5120886;28;20024;-85
2022/12/30 15:15:53;;;;;;;66.60;41.35;;;;;;;;;;5118838;28;20216;-86
2022/12/30 15:18:25;;;;;;;76.32;43.28;;;;;;;;;;5120714;28;20028;-86
2022/12/30 15:20:51;;;;;;;;;;;;;;;;;;5121265;28;20031;-86
2022/12/30 15:23:17;;;;;;;89.85;50.00;;;;;;;;;;5119790;28;20286;-86
2022/12/30 15:25:44;;;;;;;96.38;52.30;;;;;;;;;;5119651;28;20119;-86
2022/12/30 15:28:11;;;;;;;101.40;60.15;;;;;;;;;;5120095;28;20015;-85
2022/12/30 15:30:37;;;;;;;167.45;95.10;;;;;;;;;;5119264;28;20057;-86
2022/12/30 15:33:08;;;;;;;179.75;99.95;;;;;;;;;;5119648;28;20122;-86
2022/12/30 15:35:37;;;;;;;204.50;113.22;;;;;;;;;;5120020;28;20090;-84
2022/12/30 15:38:04;;;;;;;223.27;128.45;;;;;;;;;;5113322;28;20032;-85
2022/12/30 15:40:31;;;;;;;223.50;132.57;;;;;;;;;;5120367;27;20429;-87
2022/12/30 15:43:01;;;;;;;241.68;134.35;;;;;;;;;;5121076;28;20042;-83
2022/12/30 15:45:35;;;;;;;236.73;133.75;;;;;;;;;;5119057;28;20032;-85
2022/12/30 15:48:01;;;;;;;234.30;131.80;;;;;;;;;;5115751;28;20036;-84
2022/12/30 15:50:38;;;;;;;231.38;129.98;;;;;;;;;;5104380;28;20024;-85
2022/12/30 15:53:07;;;;;;;248.23;136.30;;;;;;;;;;5109657;28;20035;-86
2022/12/30 15:55:40;;;;;;;259.42;139.32;;;;;;;;;;5108196;28;20024;-87
2022/12/30 15:58:07;;;;;;;267.15;148.75;;;;;;;;;;5112078;28;20028;-86
2022/12/30 16:00:34;;;;;;;255.38;141.70;;;;;;;;;;5111415;28;20023;-86
2022/12/30 16:06:03;;;;;;;250.13;137.70;;;;;;;;;;5099782;28;20058;-85
2022/12/30 16:08:34;;;;;;;251.02;136.25;;;;;;;;;;5099447;28;20027;-85
2022/12/30 16:11:06;;;;;;;263.90;147.38;;;;;;;;;;5118176;28;20329;-86
2022/12/30 16:13:37;;;;;;;259.13;144.50;;;;;;;;;;5118841;28;20031;-85
2022/12/30 16:16:23;;;;;;;273.85;155.20;;;;;;;;;;5116708;28;20031;-86
2022/12/30 16:19:08;;;;;;;257.50;143.60;;;;;;;;;;5108685;28;20048;-85
2022/12/30 16:21:34;;;;;;;243.38;140.95;;;;;;;;;;5097421;28;20043;-86